createdAt,value
2023-02-16T00:01:44.297Z,345.37
2023-02-16T00:04:18.829Z,346.20
2023-02-16T00:06:46.698Z,344.83
2023-02-16T00:09:14.752Z,345.93
2023-02-16T00:12:01.533Z,353.03
2023-02-16T00:14:29.564Z,348.70
2023-02-16T00:16:59.167Z,358.47
2023-02-16T00:19:28.382Z,358.40
2023-02-16T00:21:58.228Z,352.57
2023-02-16T00:24:27.230Z,358.53
2023-02-16T00:26:56.922Z,352.10
2023-02-16T00:29:28.249Z,353.23
2023-02-16T00:31:57.084Z,357.90
2023-02-16T00:34:31.284Z,356.80
2023-02-16T00:37:00.188Z,352.87
2023-02-16T00:39:28.505Z,355.97
2023-02-16T00:42:01.145Z,355.17
2023-02-16T00:44:33.500Z,350.70
2023-02-16T00:47:04.116Z,353.07
2023-02-16T00:49:31.911Z,358.30
2023-02-16T00:51:59.646Z,363.13
2023-02-16T00:54:27.253Z,361.63
2023-02-16T00:56:54.881Z,370.93
2023-02-16T00:59:24.261Z,362.30
2023-02-16T01:01:52.027Z,358.83
2023-02-16T01:04:24.046Z,366.20
2023-02-16T01:07:08.995Z,356.00
2023-02-16T01:09:54.433Z,356.00
2023-02-16T01:12:22.921Z,369.17
2023-02-16T01:14:55.629Z,371.67
2023-02-16T01:17:24.267Z,374.60
2023-02-16T01:19:51.879Z,367.03
2023-02-16T01:22:19.482Z,367.30
2023-02-16T01:24:47.068Z,371.67
2023-02-16T01:27:15.076Z,378.67
2023-02-16T01:29:42.977Z,366.77
2023-02-16T01:32:13.911Z,368.03
2023-02-16T01:34:42.189Z,363.00
2023-02-16T01:37:15.962Z,372.40
2023-02-16T01:39:43.704Z,367.73
2023-02-16T01:42:19.209Z,360.60
2023-02-16T01:44:50.760Z,370.20
2023-02-16T01:47:33.984Z,377.60
2023-02-16T01:50:03.560Z,370.90
2023-02-16T01:52:35.755Z,385.40
2023-02-16T01:55:08.906Z,394.13
2023-02-16T01:57:43.759Z,381.23
2023-02-16T02:00:16.365Z,395.07
2023-02-16T02:02:49.706Z,381.00
2023-02-16T02:05:35.084Z,387.30
2023-02-16T02:08:11.531Z,389.77
2023-02-16T02:10:47.313Z,394.07
2023-02-16T02:13:22.411Z,383.20
2023-02-16T02:15:50.281Z,386.53
2023-02-16T02:18:19.325Z,382.20
2023-02-16T02:21:27.522Z,387.77
2023-02-16T02:24:16.991Z,385.97
2023-02-16T02:27:03.680Z,395.30
2023-02-16T02:30:07.185Z,384.30
2023-02-16T02:32:56.589Z,386.50
2023-02-16T02:35:38.063Z,388.70
2023-02-16T02:38:13.394Z,381.17
2023-02-16T02:40:55.924Z,400.20
2023-02-16T02:43:29.655Z,381.03
2023-02-16T02:46:00.465Z,385.73
2023-02-16T02:48:31.761Z,394.97
2023-02-16T02:51:18.794Z,387.03
2023-02-16T02:54:12.661Z,403.23
2023-02-16T02:57:01.203Z,393.03
2023-02-16T02:59:49.787Z,404.53
2023-02-16T03:02:18.808Z,402.80
2023-02-16T03:04:48.031Z,401.27
2023-02-16T03:07:16.239Z,409.07
2023-02-16T03:09:44.301Z,417.10
2023-02-16T03:12:31.959Z,402.20
2023-02-16T03:15:03.679Z,401.63
2023-02-16T03:17:53.459Z,407.00
2023-02-16T03:20:39.321Z,405.30
2023-02-16T03:23:25.695Z,401.67
2023-02-16T03:26:11.767Z,402.90
2023-02-16T03:29:00.197Z,410.00
2023-02-16T03:31:34.679Z,404.83
2023-02-16T03:34:03.552Z,397.83
2023-02-16T03:36:36.605Z,404.17
2023-02-16T03:39:05.714Z,406.40
2023-02-16T03:41:34.777Z,404.30
2023-02-16T03:44:02.404Z,406.33
2023-02-16T03:46:32.051Z,406.70
2023-02-16T03:48:59.654Z,403.23
2023-02-16T03:51:27.398Z,405.93
2023-02-16T03:53:55.023Z,406.70
2023-02-16T03:56:22.692Z,404.23
2023-02-16T03:58:50.260Z,422.47
2023-02-16T04:01:17.923Z,405.47
2023-02-16T04:03:46.862Z,400.17
2023-02-16T04:06:14.517Z,406.97
2023-02-16T04:08:42.117Z,404.93
2023-02-16T04:11:23.703Z,412.97
2023-02-16T04:13:51.362Z,409.50
2023-02-16T04:16:19.046Z,414.00
2023-02-16T04:18:47.990Z,407.17
2023-02-16T04:21:15.583Z,410.37
2023-02-16T04:23:43.892Z,405.87
2023-02-16T04:26:11.467Z,400.00
2023-02-16T04:28:39.078Z,393.40
2023-02-16T04:31:07.219Z,403.13
2023-02-16T04:33:35.017Z,409.80
2023-02-16T04:36:04.014Z,395.80
2023-02-16T04:38:31.591Z,393.20
2023-02-16T04:40:59.213Z,392.53
2023-02-16T04:43:26.957Z,395.97
2023-02-16T04:45:54.632Z,404.23
2023-02-16T04:48:22.260Z,401.87
2023-02-16T04:50:49.867Z,396.80
2023-02-16T04:53:18.979Z,400.37
2023-02-16T04:55:47.581Z,404.43
2023-02-16T04:58:15.331Z,405.73
2023-02-16T05:00:43.599Z,404.77
2023-02-16T05:03:11.206Z,406.57
2023-02-16T05:05:38.927Z,401.40
2023-02-16T05:08:07.026Z,403.50
2023-02-16T05:10:35.982Z,409.47
2023-02-16T05:13:21.306Z,393.17
2023-02-16T05:15:48.971Z,398.50
2023-02-16T05:18:16.559Z,404.90
2023-02-16T05:21:01.958Z,400.33
2023-02-16T05:23:29.713Z,397.73
2023-02-16T05:25:58.694Z,405.37
2023-02-16T05:28:26.347Z,405.70
2023-02-16T05:30:55.126Z,415.00
2023-02-16T05:33:22.752Z,416.93
2023-02-16T05:35:50.380Z,409.10
2023-02-16T05:38:17.986Z,402.30
2023-02-16T05:40:45.562Z,397.87
2023-02-16T05:43:14.490Z,405.60
2023-02-16T05:45:42.060Z,400.53
2023-02-16T05:48:09.624Z,407.20
2023-02-16T05:50:37.586Z,404.23
2023-02-16T05:53:05.249Z,412.10
2023-02-16T05:55:32.884Z,405.67
2023-02-16T05:58:00.469Z,408.17
2023-02-16T06:00:33.395Z,405.63
2023-02-16T06:03:01.060Z,407.13
2023-02-16T06:05:28.740Z,401.07
2023-02-16T06:07:56.295Z,400.77
2023-02-16T06:10:23.979Z,399.00
2023-02-16T06:12:51.557Z,404.43
2023-02-16T06:15:19.460Z,406.07
2023-02-16T06:17:48.405Z,407.93
2023-02-16T06:20:15.977Z,408.33
2023-02-16T06:22:43.594Z,405.47
2023-02-16T06:25:11.271Z,415.00
2023-02-16T06:27:38.898Z,406.27
2023-02-16T06:30:08.648Z,411.20
2023-02-16T06:32:36.571Z,410.23
2023-02-16T06:35:05.839Z,409.03
2023-02-16T06:37:33.490Z,404.97
2023-02-16T06:40:01.066Z,420.53
2023-02-16T06:42:28.623Z,410.60
2023-02-16T06:44:56.266Z,409.43
2023-02-16T06:47:23.875Z,415.87
2023-02-16T06:49:51.468Z,415.63
2023-02-16T06:52:20.577Z,414.87
2023-02-16T06:54:48.207Z,423.43
2023-02-16T06:57:15.818Z,418.63
2023-02-16T06:59:43.439Z,414.23
2023-02-16T07:02:11.384Z,415.43
2023-02-16T07:04:38.976Z,409.10
2023-02-16T07:07:06.673Z,420.33
2023-02-16T07:09:37.202Z,418.37
2023-02-16T07:12:05.113Z,427.83
2023-02-16T07:14:33.305Z,422.43
2023-02-16T07:17:04.171Z,419.00
2023-02-16T07:19:32.971Z,419.80
2023-02-16T07:22:00.773Z,428.80
2023-02-16T07:24:28.710Z,428.90
2023-02-16T07:26:57.648Z,422.83
2023-02-16T07:29:25.224Z,421.43
2023-02-16T07:31:53.461Z,422.90
2023-02-16T07:34:22.142Z,425.30
2023-02-16T07:36:50.755Z,427.40
2023-02-16T07:39:18.396Z,421.30
2023-02-16T07:41:46.006Z,416.53
2023-02-16T07:44:15.017Z,421.20
2023-02-16T07:46:42.606Z,427.70
2023-02-16T07:49:10.178Z,432.17
2023-02-16T07:51:37.783Z,428.23
2023-02-16T07:54:05.345Z,422.73
2023-02-16T07:56:34.934Z,425.07
2023-02-16T07:59:04.241Z,429.30
2023-02-16T08:01:34.381Z,414.93
2023-02-16T08:04:02.005Z,418.27
2023-02-16T08:06:29.729Z,415.10
2023-02-16T08:08:58.033Z,421.40
2023-02-16T08:11:26.503Z,418.77
2023-02-16T08:13:54.118Z,420.10
2023-02-16T08:16:23.979Z,406.87
2023-02-16T08:18:53.681Z,416.40
2023-02-16T08:21:23.740Z,412.67
2023-02-16T08:23:54.808Z,423.90
2023-02-16T08:26:24.367Z,408.77
2023-02-16T08:28:52.630Z,408.33
2023-02-16T08:31:23.043Z,402.00
2023-02-16T08:33:53.536Z,401.30
2023-02-16T08:36:23.548Z,398.70
2023-02-16T08:38:52.131Z,390.80
2023-02-16T08:41:20.957Z,389.63
2023-02-16T08:43:49.560Z,387.87
2023-02-16T08:46:18.022Z,376.63
2023-02-16T08:48:45.988Z,376.03
2023-02-16T08:51:18.408Z,363.53
2023-02-16T08:53:46.670Z,341.50
2023-02-16T08:56:16.644Z,323.70
2023-02-16T08:58:44.406Z,321.00
2023-02-16T09:01:12.751Z,302.00
2023-02-16T09:03:42.700Z,288.73
2023-02-16T09:06:12.360Z,277.13
2023-02-16T09:08:41.976Z,255.07
2023-02-16T09:11:13.240Z,259.93
2023-02-16T09:13:41.916Z,237.87
2023-02-16T09:16:11.899Z,238.00
2023-02-16T09:18:40.891Z,242.83
2023-02-16T09:21:11.612Z,233.70
2023-02-16T09:23:40.150Z,233.23
2023-02-16T09:26:11.040Z,239.83
2023-02-16T09:28:39.882Z,221.57
2023-02-16T09:31:12.311Z,221.87
2023-02-16T09:33:41.426Z,203.13
2023-02-16T09:36:11.698Z,204.03
2023-02-16T09:38:40.519Z,201.00
2023-02-16T09:41:15.345Z,208.10
2023-02-16T09:43:49.789Z,210.83
2023-02-16T09:46:22.689Z,204.07
2023-02-16T09:48:51.291Z,213.40
2023-02-16T09:51:33.819Z,207.93
2023-02-16T09:54:14.250Z,205.60
2023-02-16T09:56:50.271Z,201.70
2023-02-16T09:59:36.556Z,194.43
2023-02-16T10:02:23.551Z,186.40
2023-02-16T10:05:04.344Z,198.10
2023-02-16T10:07:41.377Z,196.50
2023-02-16T10:10:12.764Z,204.07
2023-02-16T10:12:55.773Z,204.27
2023-02-16T10:15:27.850Z,198.20
2023-02-16T10:17:58.761Z,198.50
2023-02-16T10:20:32.585Z,207.67
2023-02-16T10:23:08.265Z,201.07
2023-02-16T10:25:42.630Z,204.30
2023-02-16T10:28:17.494Z,207.80
2023-02-16T10:30:51.553Z,212.37
2023-02-16T10:33:33.850Z,205.33
2023-02-16T10:36:04.174Z,208.27
2023-02-16T10:38:38.362Z,204.77
2023-02-16T10:41:17.831Z,207.57
2023-02-16T10:43:53.996Z,209.30
2023-02-16T10:46:24.800Z,214.70
2023-02-16T10:48:54.672Z,214.53
2023-02-16T10:51:27.979Z,219.20
2023-02-16T10:54:00.542Z,218.57
2023-02-16T10:56:42.359Z,224.07
2023-02-16T10:59:17.630Z,213.10
2023-02-16T11:01:47.275Z,215.17
2023-02-16T11:04:40.262Z,222.33
2023-02-16T11:07:10.756Z,223.97
2023-02-16T11:09:39.929Z,230.23
2023-02-16T11:12:26.716Z,231.50
2023-02-16T11:14:57.758Z,239.67
2023-02-16T11:17:26.257Z,237.20
2023-02-16T11:19:56.178Z,239.50
2023-02-16T11:22:36.897Z,234.77
2023-02-16T11:25:24.509Z,237.80
2023-02-16T11:27:54.941Z,234.97
2023-02-16T11:30:32.563Z,235.07
2023-02-16T11:33:02.719Z,244.27
2023-02-16T11:35:32.838Z,233.87
2023-02-16T11:38:01.016Z,246.90
2023-02-16T11:40:32.610Z,247.90
2023-02-16T11:43:02.439Z,249.23
2023-02-16T11:45:34.552Z,248.80
2023-02-16T11:48:05.912Z,251.90
2023-02-16T11:50:38.447Z,252.57
2023-02-16T11:53:16.949Z,255.40
2023-02-16T11:55:46.786Z,253.23
2023-02-16T11:58:17.778Z,259.83
2023-02-16T12:00:57.619Z,267.43
2023-02-16T12:04:01.265Z,261.40
2023-02-16T12:06:39.999Z,256.33
2023-02-16T12:09:17.020Z,255.80
2023-02-16T12:11:56.600Z,260.27
2023-02-16T12:14:36.680Z,264.97
2023-02-16T12:17:19.880Z,260.43
2023-02-16T12:19:49.725Z,260.40
2023-02-16T12:22:29.072Z,261.83
2023-02-16T12:25:14.007Z,262.93
2023-02-16T12:27:49.375Z,260.27
2023-02-16T12:30:29.008Z,258.00
2023-02-16T12:33:13.040Z,260.87
2023-02-16T12:35:57.318Z,251.57
2023-02-16T12:38:39.701Z,262.97
2023-02-16T12:41:22.094Z,265.27
2023-02-16T12:43:54.734Z,258.50
2023-02-16T12:46:28.176Z,259.40
2023-02-16T12:49:01.156Z,258.03
2023-02-16T12:51:36.435Z,266.30
2023-02-16T12:54:10.767Z,265.40
2023-02-16T12:56:43.202Z,267.27
2023-02-16T12:59:21.299Z,268.97
2023-02-16T13:01:53.229Z,266.83
2023-02-16T13:04:27.178Z,262.13
2023-02-16T13:07:02.948Z,261.10
2023-02-16T13:09:38.874Z,275.07
2023-02-16T13:12:12.178Z,266.93
2023-02-16T13:14:44.861Z,266.10
2023-02-16T13:17:16.966Z,265.33
2023-02-16T13:19:47.719Z,273.23
2023-02-16T13:22:43.192Z,261.53
2023-02-16T13:25:30.910Z,270.00
2023-02-16T13:28:12.179Z,277.83
2023-02-16T13:31:06.722Z,267.83
2023-02-16T13:33:52.765Z,264.67
2023-02-16T13:36:57.352Z,262.97
2023-02-16T13:39:47.469Z,279.43
2023-02-16T13:42:35.526Z,267.53
2023-02-16T13:45:05.927Z,274.73
2023-02-16T13:47:38.478Z,280.10
2023-02-16T13:50:09.330Z,284.80
2023-02-16T13:52:41.767Z,278.33
2023-02-16T13:55:24.411Z,280.57
2023-02-16T13:58:00.218Z,284.67
2023-02-16T14:00:31.653Z,291.50
2023-02-16T14:03:02.108Z,294.57
2023-02-16T14:05:34.128Z,294.47
2023-02-16T14:08:21.635Z,290.50
2023-02-16T14:11:08.674Z,299.53
2023-02-16T14:13:49.787Z,307.50
2023-02-16T14:16:32.996Z,312.30
2023-02-16T14:19:04.623Z,302.67
2023-02-16T14:21:38.128Z,303.97
2023-02-16T14:24:12.885Z,299.83
2023-02-16T14:26:56.258Z,297.90
2023-02-16T14:29:28.073Z,300.83
2023-02-16T14:32:01.277Z,319.83
2023-02-16T14:34:32.173Z,330.83
2023-02-16T14:37:32.641Z,327.30
2023-02-16T14:40:20.655Z,328.10
2023-02-16T14:42:53.498Z,337.97
2023-02-16T14:45:51.550Z,337.63
2023-02-16T14:48:33.191Z,343.73
2023-02-16T14:51:43.871Z,343.20
2023-02-16T14:54:57.420Z,364.30
2023-02-16T14:57:31.394Z,363.13
2023-02-16T15:00:03.149Z,365.87
2023-02-16T15:02:33.710Z,365.77
2023-02-16T15:05:17.753Z,371.77
2023-02-16T15:07:47.537Z,380.60
2023-02-16T15:10:15.897Z,375.70
2023-02-16T15:12:45.614Z,387.30
2023-02-16T15:15:20.252Z,384.07
2023-02-16T15:17:49.212Z,380.97
2023-02-16T15:20:24.853Z,397.20
2023-02-16T15:22:53.792Z,401.90
2023-02-16T15:25:25.016Z,399.90
2023-02-16T15:28:00.277Z,393.30
2023-02-16T15:30:31.001Z,399.80
2023-02-16T15:33:01.207Z,386.87
2023-02-16T15:35:34.221Z,386.90
2023-02-16T15:38:09.027Z,387.67
2023-02-16T15:40:37.489Z,392.33
2023-02-16T15:43:11.312Z,407.03
2023-02-16T15:45:39.300Z,399.33
2023-02-16T15:48:21.920Z,393.37
2023-02-16T15:50:51.669Z,400.57
2023-02-16T15:53:28.145Z,391.87
2023-02-16T15:55:56.241Z,398.10
2023-02-16T15:58:25.276Z,391.43
2023-02-16T16:00:54.199Z,406.67
2023-02-16T16:03:23.333Z,410.97
2023-02-16T16:05:59.595Z,414.90
2023-02-16T16:08:29.791Z,414.30
2023-02-16T16:10:57.886Z,414.30
2023-02-16T16:13:29.851Z,426.67
2023-02-16T16:16:01.727Z,424.83
2023-02-16T16:18:43.162Z,418.77
2023-02-16T16:21:24.649Z,410.47
2023-02-16T16:24:01.520Z,427.33
2023-02-16T16:26:35.123Z,407.87
2023-02-16T16:29:04.916Z,403.43
2023-02-16T16:31:42.113Z,387.73
2023-02-16T16:34:12.953Z,397.27
2023-02-16T16:36:47.484Z,399.73
2023-02-16T16:39:25.456Z,393.97
2023-02-16T16:42:16.829Z,391.90
2023-02-16T16:44:55.294Z,388.30
2023-02-16T16:47:27.209Z,377.63
2023-02-16T16:49:57.011Z,391.50
2023-02-16T16:52:43.644Z,394.17
2023-02-16T16:55:38.080Z,397.67
2023-02-16T16:58:08.131Z,399.63
2023-02-16T17:00:42.240Z,397.73
2023-02-16T17:03:14.784Z,389.23
2023-02-16T17:05:43.733Z,386.43
2023-02-16T17:08:12.395Z,378.13
2023-02-16T17:10:41.866Z,384.77
2023-02-16T17:13:14.987Z,377.90
2023-02-16T17:15:48.887Z,385.53
2023-02-16T17:18:18.352Z,380.63
2023-02-16T17:20:47.177Z,385.30
2023-02-16T17:23:16.665Z,377.60
2023-02-16T17:25:44.567Z,391.97
2023-02-16T17:28:14.003Z,388.90
2023-02-16T17:30:42.731Z,384.37
2023-02-16T17:33:12.369Z,385.30
2023-02-16T17:35:42.441Z,380.23
2023-02-16T17:38:11.790Z,382.57
2023-02-16T17:40:41.157Z,385.63
2023-02-16T17:43:13.607Z,379.10
2023-02-16T17:45:41.329Z,383.97
2023-02-16T17:48:11.860Z,377.73
2023-02-16T17:50:40.763Z,373.07
2023-02-16T17:53:12.686Z,370.70
2023-02-16T17:55:40.539Z,374.63
2023-02-16T17:58:08.202Z,387.60
2023-02-16T18:00:36.793Z,377.80
2023-02-16T18:03:04.418Z,373.90
2023-02-16T18:05:32.052Z,372.73
2023-02-16T18:08:01.391Z,371.27
2023-02-16T18:10:35.483Z,375.73
2023-02-16T18:13:03.399Z,378.07
2023-02-16T18:15:31.082Z,373.70
2023-02-16T18:17:59.275Z,377.10
2023-02-16T18:20:27.600Z,369.57
2023-02-16T18:22:55.441Z,371.87
2023-02-16T18:25:25.087Z,363.53
2023-02-16T18:27:53.227Z,384.90
2023-02-16T18:30:21.223Z,378.13
2023-02-16T18:32:48.887Z,381.83
2023-02-16T18:35:17.441Z,385.07
2023-02-16T18:37:46.322Z,381.13
2023-02-16T18:40:16.651Z,384.40
2023-02-16T18:42:45.945Z,375.07
2023-02-16T18:45:13.779Z,384.50
2023-02-16T18:47:41.418Z,375.67
2023-02-16T18:50:10.010Z,380.50
2023-02-16T18:52:37.650Z,379.50
2023-02-16T18:55:05.627Z,377.90
2023-02-16T18:57:33.232Z,374.23
2023-02-16T19:00:02.388Z,386.50
2023-02-16T19:02:30.162Z,372.57
2023-02-16T19:04:57.793Z,368.40
2023-02-16T19:07:25.418Z,369.03
2023-02-16T19:09:53.098Z,363.97
2023-02-16T19:12:20.843Z,367.10
2023-02-16T19:14:48.450Z,359.87
2023-02-16T19:17:17.539Z,357.23
2023-02-16T19:19:45.157Z,352.60
2023-02-16T19:22:12.748Z,353.77
2023-02-16T19:24:40.446Z,344.50
2023-02-16T19:27:08.074Z,354.23
2023-02-16T19:29:35.689Z,342.43
2023-02-16T19:32:03.353Z,348.77
2023-02-16T19:34:33.431Z,341.63
2023-02-16T19:37:01.117Z,353.10
2023-02-16T19:39:28.736Z,353.83
2023-02-16T19:41:56.380Z,350.53
2023-02-16T19:44:24.026Z,358.43
2023-02-16T19:46:51.714Z,348.00
2023-02-16T19:49:19.992Z,352.07
2023-02-16T19:51:49.321Z,343.83
2023-02-16T19:54:16.982Z,356.10
2023-02-16T19:56:44.646Z,360.57
2023-02-16T19:59:12.258Z,363.00
2023-02-16T20:01:40.016Z,356.17
2023-02-16T20:04:07.698Z,363.03
2023-02-16T20:06:39.136Z,365.70
2023-02-16T20:09:09.314Z,360.70
2023-02-16T20:11:45.058Z,360.03
2023-02-16T20:14:13.200Z,363.90
2023-02-16T20:16:40.887Z,352.60
2023-02-16T20:19:08.598Z,363.93
2023-02-16T20:21:36.298Z,352.87
2023-02-16T20:24:06.063Z,354.83
2023-02-16T20:26:35.481Z,353.90
2023-02-16T20:29:05.583Z,355.87
2023-02-16T20:31:35.696Z,356.70
2023-02-16T20:34:04.168Z,351.23
2023-02-16T20:36:32.324Z,346.43
2023-02-16T20:38:59.981Z,364.73
2023-02-16T20:41:27.873Z,351.87
2023-02-16T20:43:55.499Z,348.20
2023-02-16T20:46:25.988Z,347.30
2023-02-16T20:48:53.965Z,341.00
2023-02-16T20:51:21.997Z,344.73
2023-02-16T20:53:49.662Z,348.80
2023-02-16T20:56:20.682Z,343.70
2023-02-16T20:58:50.464Z,347.90
2023-02-16T21:01:21.548Z,343.60
2023-02-16T21:03:51.150Z,354.33
2023-02-16T21:06:19.658Z,346.10
2023-02-16T21:08:47.544Z,360.40
2023-02-16T21:11:15.806Z,343.27
2023-02-16T21:13:43.871Z,349.63
2023-02-16T21:16:12.037Z,342.87
2023-02-16T21:18:40.670Z,344.83
2023-02-16T21:21:15.217Z,343.47
2023-02-16T21:23:43.121Z,344.80
2023-02-16T21:26:10.750Z,346.53
2023-02-16T21:28:38.813Z,346.03
2023-02-16T21:31:09.706Z,346.83
2023-02-16T21:33:38.230Z,338.13
2023-02-16T21:36:07.394Z,344.10
2023-02-16T21:38:37.353Z,347.67
2023-02-16T21:41:23.347Z,339.50
2023-02-16T21:43:52.921Z,348.20
2023-02-16T21:46:20.487Z,348.17
2023-02-16T21:48:47.532Z,337.23
2023-02-16T21:51:18.491Z,344.27
2023-02-16T21:53:48.269Z,342.40
2023-02-16T21:56:27.045Z,340.17
2023-02-16T21:58:54.778Z,348.67
2023-02-16T22:01:24.669Z,336.70
2023-02-16T22:03:56.085Z,344.80
2023-02-16T22:06:25.225Z,349.10
2023-02-16T22:08:54.727Z,348.80
2023-02-16T22:11:22.608Z,351.40
2023-02-16T22:13:54.575Z,353.50
2023-02-16T22:16:22.214Z,352.10
2023-02-16T22:18:50.140Z,360.33
2023-02-16T22:21:18.262Z,350.87
2023-02-16T22:23:45.820Z,354.57
2023-02-16T22:26:25.260Z,353.17
2023-02-16T22:28:53.413Z,360.40
2023-02-16T22:31:23.158Z,361.60
2023-02-16T22:33:56.402Z,355.83
2023-02-16T22:36:23.999Z,352.53
2023-02-16T22:38:53.097Z,356.33
2023-02-16T22:41:22.679Z,353.77
2023-02-16T22:43:53.891Z,357.93
2023-02-16T22:46:21.775Z,364.50
2023-02-16T22:48:49.437Z,356.37
2023-02-16T22:51:18.042Z,361.10
2023-02-16T22:53:45.732Z,361.80
2023-02-16T22:56:17.322Z,359.67
2023-02-16T22:58:46.793Z,366.37
2023-02-16T23:01:16.083Z,358.40
2023-02-16T23:03:44.016Z,364.20
2023-02-16T23:06:14.532Z,358.63
2023-02-16T23:08:42.542Z,358.80
2023-02-16T23:11:10.200Z,351.63
2023-02-16T23:13:38.203Z,360.50
2023-02-16T23:16:08.985Z,355.67
2023-02-16T23:18:36.674Z,357.77
2023-02-16T23:21:08.818Z,352.20
2023-02-16T23:23:36.524Z,362.07
2023-02-16T23:26:06.386Z,365.43
2023-02-16T23:28:34.230Z,360.30
2023-02-16T23:31:02.091Z,367.53
2023-02-16T23:33:31.146Z,355.47
2023-02-16T23:35:59.455Z,360.83
2023-02-16T23:38:27.176Z,359.63
2023-02-16T23:40:58.672Z,370.53
2023-02-16T23:43:26.399Z,360.57
2023-02-16T23:45:54.775Z,365.50
2023-02-16T23:48:23.056Z,363.97
2023-02-16T23:50:53.006Z,377.77
2023-02-16T23:53:21.734Z,377.17
2023-02-16T23:55:57.775Z,370.67
2023-02-16T23:58:27.155Z,373.70
